sensor_id;sensor_type;location;lat;lon;timestamp;pressure;altitude;pressure_sealevel;temperature;humidity
62059;BME280;48017;51.064;7.014;2022-09-09T00:01:37;100183.69;;;16.93;92.37
62059;BME280;48017;51.064;7.014;2022-09-09T00:04:27;100178.59;;;16.84;93.47
62059;BME280;48017;51.064;7.014;2022-09-09T00:07:05;100171.78;;;16.96;92.71
62059;BME280;48017;51.064;7.014;2022-09-09T00:09:39;100165.97;;;16.92;92.59
62059;BME280;48017;51.064;7.014;2022-09-09T00:12:10;100163.53;;;16.68;93.38
62059;BME280;48017;51.064;7.014;2022-09-09T00:14:54;100159.09;;;16.75;95.23
62059;BME280;48017;51.064;7.014;2022-09-09T00:22:57;100137.78;;;16.82;93.79
62059;BME280;48017;51.064;7.014;2022-09-09T00:25:45;100147.94;;;16.63;94.85
62059;BME280;48017;51.064;7.014;2022-09-09T00:28:24;100152.91;;;16.75;96.06
62059;BME280;48017;51.064;7.014;2022-09-09T00:30:50;100154.81;;;16.66;95.95
62059;BME280;48017;51.064;7.014;2022-09-09T00:33:19;100150.44;;;16.65;96.02
62059;BME280;48017;51.064;7.014;2022-09-09T00:36:12;100149.25;;;16.76;94.75
62059;BME280;48017;51.064;7.014;2022-09-09T00:38:47;100145.56;;;16.77;94.68
62059;BME280;48017;51.064;7.014;2022-09-09T00:41:19;100146.44;;;16.69;94.55
62059;BME280;48017;51.064;7.014;2022-09-09T00:43:55;100145.06;;;16.50;95.50
62059;BME280;48017;51.064;7.014;2022-09-09T00:46:41;100150.03;;;16.53;96.41
62059;BME280;48017;51.064;7.014;2022-09-09T00:52:02;100148.13;;;16.62;96.31
62059;BME280;48017;51.064;7.014;2022-09-09T01:02:39;100156.59;;;16.51;97.28
62059;BME280;48017;51.064;7.014;2022-09-09T01:05:17;100157.25;;;16.53;96.04
62059;BME280;48017;51.064;7.014;2022-09-09T01:07:47;100152.53;;;16.55;95.63
62059;BME280;48017;51.064;7.014;2022-09-09T01:10:26;100147.31;;;16.61;95.54
62059;BME280;48017;51.064;7.014;2022-09-09T01:12:56;100149.94;;;16.69;94.44
62059;BME280;48017;51.064;7.014;2022-09-09T01:15:29;100153.69;;;16.60;94.64
62059;BME280;48017;51.064;7.014;2022-09-09T01:18:10;100155.53;;;16.60;94.15
62059;BME280;48017;51.064;7.014;2022-09-09T01:20:55;100156.78;;;16.72;93.11
62059;BME280;48017;51.064;7.014;2022-09-09T01:26:18;100158.25;;;16.06;96.09
62059;BME280;48017;51.064;7.014;2022-09-09T01:28:47;100157.50;;;16.12;95.94
62059;BME280;48017;51.064;7.014;2022-09-09T01:31:20;100157.63;;;15.96;96.32
62059;BME280;48017;51.064;7.014;2022-09-09T01:33:47;100150.22;;;16.06;94.99
62059;BME280;48017;51.064;7.014;2022-09-09T01:36:24;100150.75;;;15.93;94.98
62059;BME280;48017;51.064;7.014;2022-09-09T01:38:52;100150.50;;;16.11;94.00
62059;BME280;48017;51.064;7.014;2022-09-09T01:41:17;100148.38;;;16.06;94.02
62059;BME280;48017;51.064;7.014;2022-09-09T01:43:43;100149.44;;;15.97;94.32
62059;BME280;48017;51.064;7.014;2022-09-09T01:46:09;100152.75;;;15.99;93.84
62059;BME280;48017;51.064;7.014;2022-09-09T01:48:36;100149.91;;;16.01;93.55
62059;BME280;48017;51.064;7.014;2022-09-09T01:51:02;100148.56;;;16.05;93.01
62059;BME280;48017;51.064;7.014;2022-09-09T01:53:27;100156.94;;;15.94;93.38
62059;BME280;48017;51.064;7.014;2022-09-09T01:56:11;100150.88;;;16.08;92.98
62059;BME280;48017;51.064;7.014;2022-09-09T02:03:44;100154.16;;;16.18;93.04
62059;BME280;48017;51.064;7.014;2022-09-09T02:06:22;100153.75;;;16.29;92.01
62059;BME280;48017;51.064;7.014;2022-09-09T02:08:52;100162.25;;;16.02;93.78
62059;BME280;48017;51.064;7.014;2022-09-09T02:11:22;100158.84;;;16.16;93.33
62059;BME280;48017;51.064;7.014;2022-09-09T02:13:51;100160.09;;;16.28;92.20
62059;BME280;48017;51.064;7.014;2022-09-09T02:16:54;100156.03;;;16.32;91.96
62059;BME280;48017;51.064;7.014;2022-09-09T02:19:49;100161.22;;;16.34;91.79
62059;BME280;48017;51.064;7.014;2022-09-09T02:22:19;100163.25;;;16.32;91.89
62059;BME280;48017;51.064;7.014;2022-09-09T02:24:47;100159.03;;;16.37;91.13
62059;BME280;48017;51.064;7.014;2022-09-09T02:27:13;100153.69;;;16.37;91.63
62059;BME280;48017;51.064;7.014;2022-09-09T02:29:42;100153.75;;;16.29;92.38
62059;BME280;48017;51.064;7.014;2022-09-09T02:32:14;100150.19;;;16.37;91.81
62059;BME280;48017;51.064;7.014;2022-09-09T02:34:43;100152.06;;;16.28;92.05
62059;BME280;48017;51.064;7.014;2022-09-09T02:37:11;100158.72;;;16.32;91.53
62059;BME280;48017;51.064;7.014;2022-09-09T02:39:38;100146.97;;;16.19;92.83
62059;BME280;48017;51.064;7.014;2022-09-09T02:42:04;100153.22;;;16.03;93.48
62059;BME280;48017;51.064;7.014;2022-09-09T02:44:29;100157.03;;;16.08;92.66
62059;BME280;48017;51.064;7.014;2022-09-09T02:50:14;100142.06;;;16.22;92.73
62059;BME280;48017;51.064;7.014;2022-09-09T02:52:51;100148.03;;;16.32;91.93
62059;BME280;48017;51.064;7.014;2022-09-09T02:55:38;100151.09;;;16.21;92.83
62059;BME280;48017;51.064;7.014;2022-09-09T02:58:06;100152.06;;;16.28;92.61
62059;BME280;48017;51.064;7.014;2022-09-09T03:00:33;100150.75;;;16.24;92.05
62059;BME280;48017;51.064;7.014;2022-09-09T03:03:02;100151.16;;;16.13;92.90
62059;BME280;48017;51.064;7.014;2022-09-09T03:05:28;100152.28;;;15.96;94.00
62059;BME280;48017;51.064;7.014;2022-09-09T03:07:53;100147.75;;;15.96;94.28
62059;BME280;48017;51.064;7.014;2022-09-09T03:10:18;100141.19;;;16.07;92.65
62059;BME280;48017;51.064;7.014;2022-09-09T03:12:44;100141.47;;;16.12;92.94
62059;BME280;48017;51.064;7.014;2022-09-09T03:15:09;100139.41;;;16.22;92.43
62059;BME280;48017;51.064;7.014;2022-09-09T03:17:35;100137.53;;;16.00;93.49
62059;BME280;48017;51.064;7.014;2022-09-09T03:20:02;100135.78;;;16.15;93.01
62059;BME280;48017;51.064;7.014;2022-09-09T03:22:27;100131.97;;;16.09;92.48
62059;BME280;48017;51.064;7.014;2022-09-09T03:24:53;100131.97;;;16.09;92.37
62059;BME280;48017;51.064;7.014;2022-09-09T03:27:18;100138.78;;;16.12;92.57
62059;BME280;48017;51.064;7.014;2022-09-09T03:29:45;100136.72;;;16.22;92.17
62059;BME280;48017;51.064;7.014;2022-09-09T03:32:10;100134.41;;;16.19;92.12
62059;BME280;48017;51.064;7.014;2022-09-09T03:34:36;100134.97;;;16.15;92.40
62059;BME280;48017;51.064;7.014;2022-09-09T03:37:04;100135.56;;;16.25;91.75
62059;BME280;48017;51.064;7.014;2022-09-09T03:39:30;100132.75;;;16.18;92.11
62059;BME280;48017;51.064;7.014;2022-09-09T03:41:55;100132.34;;;16.06;92.25
62059;BME280;48017;51.064;7.014;2022-09-09T03:44:20;100141.47;;;16.12;93.20
62059;BME280;48017;51.064;7.014;2022-09-09T03:46:46;100141.47;;;16.12;92.68
62059;BME280;48017;51.064;7.014;2022-09-09T03:49:11;100136.41;;;15.94;93.67
62059;BME280;48017;51.064;7.014;2022-09-09T03:51:36;100133.63;;;16.10;93.04
62059;BME280;48017;51.064;7.014;2022-09-09T03:54:03;100140.16;;;16.08;93.20
62059;BME280;48017;51.064;7.014;2022-09-09T03:56:30;100140.03;;;16.01;94.38
62059;BME280;48017;51.064;7.014;2022-09-09T03:58:56;100144.81;;;15.83;94.64
62059;BME280;48017;51.064;7.014;2022-09-09T04:01:22;100146.31;;;15.86;94.23
62059;BME280;48017;51.064;7.014;2022-09-09T04:03:47;100140.53;;;16.05;93.39
62059;BME280;48017;51.064;7.014;2022-09-09T04:06:14;100150.41;;;16.04;93.71
62059;BME280;48017;51.064;7.014;2022-09-09T04:08:40;100146.16;;;16.10;92.87
62059;BME280;48017;51.064;7.014;2022-09-09T04:11:06;100144.56;;;16.01;93.19
62059;BME280;48017;51.064;7.014;2022-09-09T04:13:36;100138.22;;;15.94;94.05
62059;BME280;48017;51.064;7.014;2022-09-09T04:16:05;100134.78;;;16.16;92.52
62059;BME280;48017;51.064;7.014;2022-09-09T04:18:31;100143.91;;;16.22;92.17
62059;BME280;48017;51.064;7.014;2022-09-09T04:20:57;100136.84;;;16.06;93.01
62059;BME280;48017;51.064;7.014;2022-09-09T04:23:24;100134.47;;;16.11;93.03
62059;BME280;48017;51.064;7.014;2022-09-09T04:25:52;100137.56;;;16.23;91.91
62059;BME280;48017;51.064;7.014;2022-09-09T04:28:18;100133.75;;;16.17;91.66
62059;BME280;48017;51.064;7.014;2022-09-09T04:30:44;100134.00;;;16.07;91.97
62059;BME280;48017;51.064;7.014;2022-09-09T04:33:10;100129.94;;;16.11;92.00
62059;BME280;48017;51.064;7.014;2022-09-09T04:35:37;100133.25;;;16.13;91.47
62059;BME280;48017;51.064;7.014;2022-09-09T04:38:03;100134.22;;;16.21;91.01
62059;BME280;48017;51.064;7.014;2022-09-09T04:40:29;100137.03;;;16.27;90.27
62059;BME280;48017;51.064;7.014;2022-09-09T04:42:57;100140.53;;;16.28;89.97
62059;BME280;48017;51.064;7.014;2022-09-09T04:45:22;100140.53;;;16.28;90.48
62059;BME280;48017;51.064;7.014;2022-09-09T04:47:47;100146.13;;;16.18;90.76
62059;BME280;48017;51.064;7.014;2022-09-09T04:50:14;100140.59;;;16.20;90.42
62059;BME280;48017;51.064;7.014;2022-09-09T04:52:39;100144.16;;;16.12;91.16
62059;BME280;48017;51.064;7.014;2022-09-09T04:55:06;100142.88;;;16.00;92.38
62059;BME280;48017;51.064;7.014;2022-09-09T04:57:32;100152.59;;;15.93;92.57
62059;BME280;48017;51.064;7.014;2022-09-09T04:59:58;100149.06;;;16.00;92.45
62059;BME280;48017;51.064;7.014;2022-09-09T05:02:25;100150.28;;;15.90;92.95
62059;BME280;48017;51.064;7.014;2022-09-09T05:04:51;100146.81;;;15.81;93.07
62059;BME280;48017;51.064;7.014;2022-09-09T05:07:16;100147.31;;;15.84;93.19
62059;BME280;48017;51.064;7.014;2022-09-09T05:09:41;100150.47;;;15.88;92.81
62059;BME280;48017;51.064;7.014;2022-09-09T05:12:07;100151.31;;;15.89;92.24
62059;BME280;48017;51.064;7.014;2022-09-09T05:14:33;100138.56;;;15.99;91.82
62059;BME280;48017;51.064;7.014;2022-09-09T05:16:59;100142.06;;;15.99;91.60
62059;BME280;48017;51.064;7.014;2022-09-09T05:19:24;100141.81;;;15.86;92.88
62059;BME280;48017;51.064;7.014;2022-09-09T05:21:50;100145.97;;;15.89;92.15
62059;BME280;48017;51.064;7.014;2022-09-09T05:24:15;100141.44;;;15.89;92.78
62059;BME280;48017;51.064;7.014;2022-09-09T05:26:42;100147.97;;;15.87;92.96
62059;BME280;48017;51.064;7.014;2022-09-09T05:29:08;100147.44;;;15.91;93.77
62059;BME280;48017;51.064;7.014;2022-09-09T05:31:34;100134.72;;;15.93;96.02
62059;BME280;48017;51.064;7.014;2022-09-09T05:33:59;100136.09;;;15.89;97.05
62059;BME280;48017;51.064;7.014;2022-09-09T05:36:25;100133.41;;;15.89;98.20
62059;BME280;48017;51.064;7.014;2022-09-09T05:38:50;100138.63;;;15.82;98.23
62059;BME280;48017;51.064;7.014;2022-09-09T05:41:16;100144.91;;;15.50;100.00
62059;BME280;48017;51.064;7.014;2022-09-09T05:43:43;100143.56;;;15.63;99.92
62059;BME280;48017;51.064;7.014;2022-09-09T05:46:23;100141.59;;;15.48;100.00
62059;BME280;48017;51.064;7.014;2022-09-09T05:48:50;100145.09;;;15.49;100.00
62059;BME280;48017;51.064;7.014;2022-09-09T05:51:25;100148.78;;;15.48;100.00
62059;BME280;48017;51.064;7.014;2022-09-09T05:53:52;100148.31;;;15.44;100.00
62059;BME280;48017;51.064;7.014;2022-09-09T05:56:22;100164.16;;;15.38;100.00
62059;BME280;48017;51.064;7.014;2022-09-09T05:58:49;100153.84;;;15.35;100.00
62059;BME280;48017;51.064;7.014;2022-09-09T06:01:20;100152.81;;;15.36;100.00
62059;BME280;48017;51.064;7.014;2022-09-09T06:03:47;100146.84;;;15.34;100.00
62059;BME280;48017;51.064;7.014;2022-09-09T06:06:15;100149.31;;;15.35;100.00
62059;BME280;48017;51.064;7.014;2022-09-09T06:08:43;100143.31;;;15.33;100.00
62059;BME280;48017;51.064;7.014;2022-09-09T06:11:18;100146.47;;;15.37;100.00
62059;BME280;48017;51.064;7.014;2022-09-09T06:13:43;100147.28;;;15.45;100.00
62059;BME280;48017;51.064;7.014;2022-09-09T06:16:14;100144.09;;;15.42;100.00
62059;BME280;48017;51.064;7.014;2022-09-09T06:18:41;100154.13;;;15.48;100.00
62059;BME280;48017;51.064;7.014;2022-09-09T06:21:10;100150.78;;;15.46;100.00
62059;BME280;48017;51.064;7.014;2022-09-09T06:23:36;100149.97;;;15.45;100.00
62059;BME280;48017;51.064;7.014;2022-09-09T06:26:14;100153.41;;;15.62;100.00
62059;BME280;48017;51.064;7.014;2022-09-09T06:28:40;100159.53;;;15.79;99.04
62059;BME280;48017;51.064;7.014;2022-09-09T06:31:09;100156.06;;;15.70;100.00
62059;BME280;48017;51.064;7.014;2022-09-09T06:33:35;100162.03;;;15.80;98.93
62059;BME280;48017;51.064;7.014;2022-09-09T06:36:03;100160.72;;;15.76;99.16
62059;BME280;48017;51.064;7.014;2022-09-09T06:38:29;100160.84;;;15.83;98.77
62059;BME280;48017;51.064;7.014;2022-09-09T06:40:56;100157.13;;;15.92;97.80
62059;BME280;48017;51.064;7.014;2022-09-09T06:43:22;100164.31;;;15.92;96.18
62059;BME280;48017;51.064;7.014;2022-09-09T06:46:01;100159.31;;;15.89;98.08
62059;BME280;48017;51.064;7.014;2022-09-09T06:48:28;100162.34;;;15.86;97.93
62059;BME280;48017;51.064;7.014;2022-09-09T06:51:04;100152.97;;;15.90;98.13
62059;BME280;48017;51.064;7.014;2022-09-09T06:53:31;100164.81;;;15.95;97.28
62059;BME280;48017;51.064;7.014;2022-09-09T06:58:39;100158.94;;;16.23;94.50
62059;BME280;48017;51.064;7.014;2022-09-09T07:01:08;100156.88;;;16.33;94.42
62059;BME280;48017;51.064;7.014;2022-09-09T07:03:33;100154.88;;;16.58;92.08
62059;BME280;48017;51.064;7.014;2022-09-09T07:05:59;100163.22;;;17.01;88.61
62059;BME280;48017;51.064;7.014;2022-09-09T07:08:25;100162.66;;;17.05;87.06
62059;BME280;48017;51.064;7.014;2022-09-09T07:10:52;100151.06;;;17.42;87.15
62059;BME280;48017;51.064;7.014;2022-09-09T07:13:24;100152.34;;;17.46;85.40
62059;BME280;48017;51.064;7.014;2022-09-09T07:15:51;100152.72;;;18.24;80.35
62059;BME280;48017;51.064;7.014;2022-09-09T07:18:17;100153.91;;;18.00;79.01
62059;BME280;48017;51.064;7.014;2022-09-09T07:20:42;100158.84;;;17.52;80.14
62059;BME280;48017;51.064;7.014;2022-09-09T07:23:08;100149.88;;;17.30;80.17
62059;BME280;48017;51.064;7.014;2022-09-09T07:25:33;100165.56;;;17.33;79.37
62059;BME280;48017;51.064;7.014;2022-09-09T07:27:58;100165.84;;;17.23;79.59
62059;BME280;48017;51.064;7.014;2022-09-09T07:30:24;100174.78;;;17.16;79.02
62059;BME280;48017;51.064;7.014;2022-09-09T07:32:51;100159.00;;;17.21;79.62
62059;BME280;48017;51.064;7.014;2022-09-09T07:35:17;100170.47;;;17.30;79.90
62059;BME280;48017;51.064;7.014;2022-09-09T07:37:43;100176.75;;;17.22;77.58
62059;BME280;48017;51.064;7.014;2022-09-09T07:40:09;100185.91;;;17.27;77.52
62059;BME280;48017;51.064;7.014;2022-09-09T07:42:35;100192.09;;;17.28;76.97
62059;BME280;48017;51.064;7.014;2022-09-09T07:45:01;100184.88;;;17.28;77.14
62059;BME280;48017;51.064;7.014;2022-09-09T07:47:26;100189.78;;;17.54;76.76
62059;BME280;48017;51.064;7.014;2022-09-09T07:49:52;100177.59;;;17.52;76.16
62059;BME280;48017;51.064;7.014;2022-09-09T07:52:17;100182.31;;;17.50;76.45
62059;BME280;48017;51.064;7.014;2022-09-09T07:54:45;100187.41;;;17.60;75.47
62059;BME280;48017;51.064;7.014;2022-09-09T07:57:10;100180.91;;;17.69;74.49
62059;BME280;48017;51.064;7.014;2022-09-09T07:59:37;100187.41;;;18.47;71.25
62059;BME280;48017;51.064;7.014;2022-09-09T08:02:02;100189.34;;;19.51;66.14
62059;BME280;48017;51.064;7.014;2022-09-09T08:04:28;100179.06;;;18.56;68.95
62059;BME280;48017;51.064;7.014;2022-09-09T08:06:56;100179.63;;;18.30;68.88
62059;BME280;48017;51.064;7.014;2022-09-09T08:09:23;100190.69;;;18.06;69.12
62059;BME280;48017;51.064;7.014;2022-09-09T08:11:52;100189.16;;;17.82;69.33
62059;BME280;48017;51.064;7.014;2022-09-09T08:14:18;100187.13;;;17.84;69.62
62059;BME280;48017;51.064;7.014;2022-09-09T08:16:46;100182.34;;;17.79;70.08
62059;BME280;48017;51.064;7.014;2022-09-09T08:19:11;100190.63;;;17.84;70.74
62059;BME280;48017;51.064;7.014;2022-09-09T08:21:39;100192.03;;;17.80;69.58
62059;BME280;48017;51.064;7.014;2022-09-09T08:24:05;100180.47;;;17.80;68.62
62059;BME280;48017;51.064;7.014;2022-09-09T08:26:38;100179.81;;;17.93;68.82
62059;BME280;48017;51.064;7.014;2022-09-09T08:29:06;100174.97;;;18.03;69.39
62059;BME280;48017;51.064;7.014;2022-09-09T08:31:40;100184.25;;;18.00;67.46
62059;BME280;48017;51.064;7.014;2022-09-09T08:34:08;100177.28;;;18.06;67.39
62059;BME280;48017;51.064;7.014;2022-09-09T08:36:37;100176.13;;;18.15;65.26
62059;BME280;48017;51.064;7.014;2022-09-09T08:39:04;100175.94;;;18.17;64.75
62059;BME280;48017;51.064;7.014;2022-09-09T08:44:20;100180.47;;;18.52;64.66
62059;BME280;48017;51.064;7.014;2022-09-09T08:53:16;100193.56;;;19.05;62.86
62059;BME280;48017;51.064;7.014;2022-09-09T08:58:28;100196.56;;;18.52;62.61
62059;BME280;48017;51.064;7.014;2022-09-09T09:09:03;100197.63;;;18.73;61.12
62059;BME280;48017;51.064;7.014;2022-09-09T09:11:50;100189.81;;;18.78;58.12
62059;BME280;48017;51.064;7.014;2022-09-09T09:14:24;100199.53;;;18.79;58.34
62059;BME280;48017;51.064;7.014;2022-09-09T09:16:57;100193.78;;;18.82;57.60
62059;BME280;48017;51.064;7.014;2022-09-09T09:19:24;100214.78;;;18.99;57.01
62059;BME280;48017;51.064;7.014;2022-09-09T09:24:19;100200.00;;;19.10;56.30
62059;BME280;48017;51.064;7.014;2022-09-09T09:26:45;100194.53;;;18.97;55.66
62059;BME280;48017;51.064;7.014;2022-09-09T09:29:14;100201.97;;;18.95;56.16
62059;BME280;48017;51.064;7.014;2022-09-09T09:31:47;100196.97;;;18.92;56.72
62059;BME280;48017;51.064;7.014;2022-09-09T09:34:14;100194.44;;;18.84;56.92
62059;BME280;48017;51.064;7.014;2022-09-09T09:36:46;100200.13;;;18.74;57.23
62059;BME280;48017;51.064;7.014;2022-09-09T09:39:29;100201.34;;;18.72;57.92
62059;BME280;48017;51.064;7.014;2022-09-09T09:41:55;100195.16;;;18.71;58.38
62059;BME280;48017;51.064;7.014;2022-09-09T09:44:22;100206.72;;;18.72;58.89
62059;BME280;48017;51.064;7.014;2022-09-09T09:46:48;100197.75;;;18.64;58.82
62059;BME280;48017;51.064;7.014;2022-09-09T09:49:13;100206.03;;;18.69;59.63
62059;BME280;48017;51.064;7.014;2022-09-09T09:51:38;100207.47;;;18.65;58.87
62059;BME280;48017;51.064;7.014;2022-09-09T09:56:31;100205.06;;;18.70;59.30
62059;BME280;48017;51.064;7.014;2022-09-09T09:58:58;100206.25;;;18.68;59.46
62059;BME280;48017;51.064;7.014;2022-09-09T10:01:31;100211.06;;;18.73;59.98
62059;BME280;48017;51.064;7.014;2022-09-09T10:04:24;100209.25;;;18.80;59.85
62059;BME280;48017;51.064;7.014;2022-09-09T10:06:50;100208.75;;;18.91;58.78
62059;BME280;48017;51.064;7.014;2022-09-09T10:14:36;100200.84;;;19.67;57.60
62059;BME280;48017;51.064;7.014;2022-09-09T10:17:22;100192.34;;;19.35;58.22
62059;BME280;48017;51.064;7.014;2022-09-09T10:20:04;100199.56;;;19.35;58.45
62059;BME280;48017;51.064;7.014;2022-09-09T10:22:39;100203.84;;;19.22;58.60
62059;BME280;48017;51.064;7.014;2022-09-09T10:36:15;100191.47;;;19.56;58.13
62059;BME280;48017;51.064;7.014;2022-09-09T10:38:48;100188.69;;;19.77;56.57
62059;BME280;48017;51.064;7.014;2022-09-09T10:52:09;100187.34;;;19.60;56.26
62059;BME280;48017;51.064;7.014;2022-09-09T10:54:50;100179.38;;;19.45;56.47
62059;BME280;48017;51.064;7.014;2022-09-09T10:57:29;100184.97;;;19.50;57.19
62059;BME280;48017;51.064;7.014;2022-09-09T11:00:00;100183.13;;;19.51;56.67
62059;BME280;48017;51.064;7.014;2022-09-09T11:02:32;100185.31;;;20.17;54.93
62059;BME280;48017;51.064;7.014;2022-09-09T11:05:08;100179.56;;;20.33;53.88
62059;BME280;48017;51.064;7.014;2022-09-09T11:07:40;100185.25;;;20.58;53.35
62059;BME280;48017;51.064;7.014;2022-09-09T11:10:34;100186.28;;;20.83;52.20
62059;BME280;48017;51.064;7.014;2022-09-09T11:13:04;100177.16;;;20.71;52.30
62059;BME280;48017;51.064;7.014;2022-09-09T11:15:42;100183.50;;;20.37;53.54
62059;BME280;48017;51.064;7.014;2022-09-09T11:18:29;100181.13;;;20.88;52.16
62059;BME280;48017;51.064;7.014;2022-09-09T11:21:00;100176.34;;;20.64;52.96
62059;BME280;48017;51.064;7.014;2022-09-09T11:23:59;100158.47;;;20.36;53.77
62059;BME280;48017;51.064;7.014;2022-09-09T11:26:35;100168.34;;;20.23;54.53
62059;BME280;48017;51.064;7.014;2022-09-09T11:34:53;100171.91;;;19.75;55.21
62059;BME280;48017;51.064;7.014;2022-09-09T11:42:40;100173.78;;;19.75;55.75
62059;BME280;48017;51.064;7.014;2022-09-09T11:45:15;100178.16;;;19.82;55.48
62059;BME280;48017;51.064;7.014;2022-09-09T11:47:54;100168.97;;;19.64;54.15
62059;BME280;48017;51.064;7.014;2022-09-09T11:52:47;100161.47;;;19.59;53.20
62059;BME280;48017;51.064;7.014;2022-09-09T11:55:34;100170.81;;;19.63;52.86
62059;BME280;48017;51.064;7.014;2022-09-09T11:58:05;100161.94;;;19.69;53.35
62059;BME280;48017;51.064;7.014;2022-09-09T12:00:46;100171.44;;;19.65;53.46
62059;BME280;48017;51.064;7.014;2022-09-09T12:08:53;100162.31;;;19.60;54.46
62059;BME280;48017;51.064;7.014;2022-09-09T12:11:28;100163.38;;;19.65;54.29
62059;BME280;48017;51.064;7.014;2022-09-09T12:13:56;100165.25;;;19.65;54.24
62059;BME280;48017;51.064;7.014;2022-09-09T12:16:36;100180.56;;;19.64;54.10
62059;BME280;48017;51.064;7.014;2022-09-09T12:21:42;100166.16;;;19.50;54.17
62059;BME280;48017;51.064;7.014;2022-09-09T12:24:11;100164.75;;;19.54;54.42
62059;BME280;48017;51.064;7.014;2022-09-09T12:26:47;100157.34;;;19.56;54.33
62059;BME280;48017;51.064;7.014;2022-09-09T12:40:02;100148.66;;;19.61;53.54
62059;BME280;48017;51.064;7.014;2022-09-09T12:42:30;100158.63;;;19.67;53.62
62059;BME280;48017;51.064;7.014;2022-09-09T12:45:03;100149.19;;;19.84;53.60
62059;BME280;48017;51.064;7.014;2022-09-09T12:50:20;100150.69;;;19.94;52.92
62059;BME280;48017;51.064;7.014;2022-09-09T12:52:47;100148.91;;;19.66;53.02
62059;BME280;48017;51.064;7.014;2022-09-09T12:55:20;100155.69;;;19.55;53.70
62059;BME280;48017;51.064;7.014;2022-09-09T12:57:48;100151.50;;;19.53;53.90
62059;BME280;48017;51.064;7.014;2022-09-09T13:00:20;100163.59;;;19.36;55.40
62059;BME280;48017;51.064;7.014;2022-09-09T13:03:16;100185.91;;;19.02;59.96
62059;BME280;48017;51.064;7.014;2022-09-09T13:05:41;100177.78;;;18.31;71.94
62059;BME280;48017;51.064;7.014;2022-09-09T13:08:12;100181.06;;;18.11;75.52
62059;BME280;48017;51.064;7.014;2022-09-09T13:13:17;100172.78;;;19.20;74.61
62059;BME280;48017;51.064;7.014;2022-09-09T13:16:04;100166.34;;;19.77;73.11
62059;BME280;48017;51.064;7.014;2022-09-09T13:18:37;100164.75;;;19.96;71.03
62059;BME280;48017;51.064;7.014;2022-09-09T13:21:05;100154.50;;;19.71;70.37
62059;BME280;48017;51.064;7.014;2022-09-09T13:23:34;100162.50;;;19.58;71.60
62059;BME280;48017;51.064;7.014;2022-09-09T13:26:23;100156.19;;;19.10;72.73
62059;BME280;48017;51.064;7.014;2022-09-09T13:28:50;100153.69;;;19.08;72.86
62059;BME280;48017;51.064;7.014;2022-09-09T13:31:42;100146.59;;;19.28;72.55
62059;BME280;48017;51.064;7.014;2022-09-09T13:34:12;100152.44;;;19.32;71.85
62059;BME280;48017;51.064;7.014;2022-09-09T13:36:38;100148.44;;;19.28;71.20
62059;BME280;48017;51.064;7.014;2022-09-09T13:39:15;100153.06;;;19.34;72.19
62059;BME280;48017;51.064;7.014;2022-09-09T13:41:43;100145.66;;;19.43;72.07
62059;BME280;48017;51.064;7.014;2022-09-09T13:44:25;100144.84;;;19.42;72.36
62059;BME280;48017;51.064;7.014;2022-09-09T13:49:30;100152.22;;;19.34;73.05
62059;BME280;48017;51.064;7.014;2022-09-09T13:52:08;100143.13;;;19.35;75.98
62059;BME280;48017;51.064;7.014;2022-09-09T13:54:34;100141.50;;;19.40;78.36
62059;BME280;48017;51.064;7.014;2022-09-09T13:57:00;100131.72;;;18.98;77.48
62059;BME280;48017;51.064;7.014;2022-09-09T13:59:26;100131.81;;;19.46;77.91
62059;BME280;48017;51.064;7.014;2022-09-09T14:01:52;100127.09;;;19.13;75.67
62059;BME280;48017;51.064;7.014;2022-09-09T14:04:19;100125.81;;;19.44;77.02
62059;BME280;48017;51.064;7.014;2022-09-09T14:06:48;100122.91;;;19.45;76.72
62059;BME280;48017;51.064;7.014;2022-09-09T14:09:16;100118.66;;;19.58;75.03
62059;BME280;48017;51.064;7.014;2022-09-09T14:11:42;100121.72;;;19.54;78.13
62059;BME280;48017;51.064;7.014;2022-09-09T14:14:08;100124.00;;;19.16;80.62
62059;BME280;48017;51.064;7.014;2022-09-09T14:16:34;100117.78;;;19.16;81.34
62059;BME280;48017;51.064;7.014;2022-09-09T14:18:59;100119.34;;;19.32;78.90
62059;BME280;48017;51.064;7.014;2022-09-09T14:21:26;100130.72;;;19.34;79.85
62059;BME280;48017;51.064;7.014;2022-09-09T14:23:52;100127.44;;;19.10;80.22
62059;BME280;48017;51.064;7.014;2022-09-09T14:26:18;100148.31;;;19.08;82.60
62059;BME280;48017;51.064;7.014;2022-09-09T14:28:47;100137.44;;;18.88;87.84
62059;BME280;48017;51.064;7.014;2022-09-09T14:31:13;100135.28;;;18.56;86.39
62059;BME280;48017;51.064;7.014;2022-09-09T14:33:39;100162.41;;;18.03;88.38
62059;BME280;48017;51.064;7.014;2022-09-09T14:36:04;100160.03;;;17.49;90.54
62059;BME280;48017;51.064;7.014;2022-09-09T14:38:32;100171.38;;;17.07;93.54
62059;BME280;48017;51.064;7.014;2022-09-09T14:40:59;100157.50;;;17.04;90.50
62059;BME280;48017;51.064;7.014;2022-09-09T14:43:24;100164.31;;;16.91;93.25
62059;BME280;48017;51.064;7.014;2022-09-09T14:45:51;100154.69;;;16.82;94.04
62059;BME280;48017;51.064;7.014;2022-09-09T14:48:17;100154.22;;;16.79;94.80
62059;BME280;48017;51.064;7.014;2022-09-09T14:50:42;100156.66;;;16.65;97.40
62059;BME280;48017;51.064;7.014;2022-09-09T14:53:08;100149.16;;;16.84;95.55
62059;BME280;48017;51.064;7.014;2022-09-09T14:55:34;100155.13;;;16.71;94.93
62059;BME280;48017;51.064;7.014;2022-09-09T14:58:00;100164.75;;;16.57;94.05
62059;BME280;48017;51.064;7.014;2022-09-09T15:00:25;100161.81;;;16.67;94.41
62059;BME280;48017;51.064;7.014;2022-09-09T15:02:54;100155.69;;;16.81;92.83
62059;BME280;48017;51.064;7.014;2022-09-09T15:05:20;100162.28;;;16.93;91.71
62059;BME280;48017;51.064;7.014;2022-09-09T15:07:46;100153.81;;;17.05;89.62